Time;durP1;ratioP1;P1;durP2;ratioP2;P2;SDS_P1;SDS_P2;PMS_P1;PMS_P2;Temp;Humidity;BMP_temperature;BMP_pressure;BME280_temperature;BME280_humidity;BME280_pressure;Samples;Min_cycle;Max_cycle;Signal;HPM_P1;HPM_P2
2023/03/06 00:00:40;;;;;;;14.70;6.30;;;;;;;;;;110520;1257;22133;-73
2023/03/06 00:03:17;;;;;;;13.70;6.00;;;;;;;;;;110583;1267;22167;-73
2023/03/06 00:05:44;;;;;;;14.10;6.10;;;;;;;;;;110484;1275;22004;-73
2023/03/06 00:08:11;;;;;;;14.00;6.20;;;;;;;;;;110492;1269;22119;-73
2023/03/06 00:10:39;;;;;;;13.90;5.70;;;;;;;;;;110407;1275;22117;-73
2023/03/06 00:13:07;;;;;;;16.30;6.20;;;;;;;;;;110407;1261;22246;-74
2023/03/06 00:15:34;;;;;;;15.40;6.30;;;;;;;;;;110484;1275;22323;-73
2023/03/06 00:18:04;;;;;;;18.10;7.60;;;;;;;;;;110471;1275;22131;-73
2023/03/06 00:20:32;;;;;;;18.10;7.40;;;;;;;;;;110513;1275;22133;-73
2023/03/06 00:22:59;;;;;;;22.10;9.30;;;;;;;;;;110393;1253;22916;-73
2023/03/06 00:25:26;;;;;;;24.40;9.60;;;;;;;;;;110264;1263;22095;-75
2023/03/06 00:27:53;;;;;;;23.10;9.80;;;;;;;;;;110493;1275;23051;-73
2023/03/06 00:30:21;;;;;;;23.10;10.30;;;;;;;;;;110251;1276;22753;-74
2023/03/06 00:32:48;;;;;;;20.80;8.50;;;;;;;;;;110494;1275;22133;-74
2023/03/06 00:35:15;;;;;;;24.20;8.90;;;;;;;;;;110973;1257;22185;-74
2023/03/06 00:37:43;;;;;;;21.40;8.60;;;;;;;;;;110503;1275;22335;-73
2023/03/06 00:40:12;;;;;;;22.20;8.60;;;;;;;;;;110461;1276;22123;-74
2023/03/06 00:42:39;;;;;;;22.50;9.10;;;;;;;;;;110403;1277;22147;-75
2023/03/06 00:45:06;;;;;;;23.40;9.80;;;;;;;;;;110533;1256;22777;-73
2023/03/06 00:47:32;;;;;;;25.50;10.40;;;;;;;;;;110193;1276;22104;-73
2023/03/06 00:49:59;;;;;;;24.00;10.00;;;;;;;;;;110221;1276;22110;-73
2023/03/06 00:52:26;;;;;;;26.20;10.50;;;;;;;;;;110429;1277;22087;-73
2023/03/06 00:54:53;;;;;;;26.90;10.10;;;;;;;;;;110534;1256;22108;-74
2023/03/06 00:57:20;;;;;;;33.70;12.40;;;;;;;;;;110444;1277;22983;-73
2023/03/06 00:59:46;;;;;;;22.60;9.40;;;;;;;;;;110466;1277;22148;-73
2023/03/06 01:02:13;;;;;;;20.10;7.60;;;;;;;;;;110413;1277;22108;-74
2023/03/06 01:04:40;;;;;;;20.00;7.50;;;;;;;;;;110349;1256;22124;-73
2023/03/06 01:07:07;;;;;;;15.80;7.40;;;;;;;;;;110404;1277;22114;-74
2023/03/06 01:09:34;;;;;;;18.00;8.20;;;;;;;;;;110409;1276;22312;-74
2023/03/06 01:12:01;;;;;;;28.80;8.70;;;;;;;;;;110388;1277;22130;-74
2023/03/06 01:14:28;;;;;;;24.30;7.70;;;;;;;;;;110241;1256;22104;-73
2023/03/06 01:16:54;;;;;;;23.80;8.80;;;;;;;;;;110429;1276;22106;-74
2023/03/06 01:19:21;;;;;;;22.80;8.70;;;;;;;;;;110469;1277;22990;-74
2023/03/06 01:21:48;;;;;;;25.70;9.70;;;;;;;;;;110394;1277;22136;-74
2023/03/06 01:24:25;;;;;;;;;;;;;;;;;;;;;
2023/03/06 01:31:38;;;;;;;24.80;9.10;;;;;;;;;;110033;1281;22190;-74
2023/03/06 01:34:04;;;;;;;28.70;11.00;;;;;;;;;;110040;1282;23102;-74
2023/03/06 01:36:31;;;;;;;22.70;8.90;;;;;;;;;;109980;1260;22634;-74
2023/03/06 01:38:58;;;;;;;20.80;8.00;;;;;;;;;;109956;1282;22169;-77
2023/03/06 01:41:24;;;;;;;18.00;7.20;;;;;;;;;;110011;1283;22174;-73
2023/03/06 01:43:51;;;;;;;17.30;6.60;;;;;;;;;;110022;1282;22645;-74
2023/03/06 01:46:29;;;;;;;13.10;6.30;;;;;;;;;;110333;1262;22241;-74
2023/03/06 01:49:02;;;;;;;15.60;5.60;;;;;;;;;;109982;1282;22170;-74
2023/03/06 01:51:31;;;;;;;13.80;6.40;;;;;;;;;;110015;1282;22027;-74
2023/03/06 01:54:00;;;;;;;15.60;6.80;;;;;;;;;;109980;1282;23173;-74
2023/03/06 01:56:27;;;;;;;15.00;6.60;;;;;;;;;;110277;1262;22141;-74
2023/03/06 01:58:54;;;;;;;17.50;7.30;;;;;;;;;;109987;1282;22136;-74
2023/03/06 02:01:21;;;;;;;15.70;6.80;;;;;;;;;;109988;1282;22409;-75
2023/03/06 02:03:49;;;;;;;15.30;7.10;;;;;;;;;;110099;1277;22881;-74
2023/03/06 02:06:18;;;;;;;16.80;7.50;;;;;;;;;;110583;1259;23083;-74
2023/03/06 02:08:46;;;;;;;18.30;7.20;;;;;;;;;;110414;1277;22095;-74
2023/03/06 02:11:16;;;;;;;15.50;6.50;;;;;;;;;;110377;1277;22395;-76
2023/03/06 02:13:44;;;;;;;14.80;6.90;;;;;;;;;;110302;1277;22116;-75
2023/03/06 02:16:13;;;;;;;15.10;6.50;;;;;;;;;;110453;1256;22131;-74
2023/03/06 02:18:40;;;;;;;16.50;7.30;;;;;;;;;;110370;1277;22100;-74
2023/03/06 02:21:09;;;;;;;15.90;7.10;;;;;;;;;;110213;1277;22243;-75
2023/03/06 02:23:36;;;;;;;20.40;7.90;;;;;;;;;;110312;1277;22825;-74
2023/03/06 02:26:03;;;;;;;18.70;8.30;;;;;;;;;;110478;1256;22741;-73
2023/03/06 02:28:30;;;;;;;20.60;8.90;;;;;;;;;;110380;1277;22138;-74
2023/03/06 02:31:04;;;;;;;25.30;9.50;;;;;;;;;;110346;1277;22106;-75
2023/03/06 02:33:32;;;;;;;19.80;8.10;;;;;;;;;;110432;1265;22767;-75
2023/03/06 02:36:05;;;;;;;19.90;7.50;;;;;;;;;;110463;1259;22181;-75
2023/03/06 02:38:39;;;;;;;16.70;6.70;;;;;;;;;;110187;1277;22847;-75
2023/03/06 02:41:07;;;;;;;16.00;7.50;;;;;;;;;;110191;1278;22315;-75
2023/03/06 02:43:36;;;;;;;17.60;7.80;;;;;;;;;;110186;1278;22091;-75
2023/03/06 02:46:06;;;;;;;17.40;7.00;;;;;;;;;;110238;1256;23078;-75
2023/03/06 02:48:33;;;;;;;14.80;6.80;;;;;;;;;;110164;1279;22131;-75
2023/03/06 02:51:00;;;;;;;15.70;7.00;;;;;;;;;;110210;1279;22105;-75
2023/03/06 02:53:27;;;;;;;15.20;6.20;;;;;;;;;;110298;1279;22108;-75
2023/03/06 02:55:54;;;;;;;16.70;7.50;;;;;;;;;;110166;1278;22438;-74
2023/03/06 02:58:20;;;;;;;11.90;6.40;;;;;;;;;;110158;1268;22136;-76
2023/03/06 03:00:48;;;;;;;14.00;6.20;;;;;;;;;;110169;1274;22105;-75
2023/03/06 03:03:15;;;;;;;12.80;6.20;;;;;;;;;;110200;1279;22083;-75
2023/03/06 03:05:42;;;;;;;13.00;6.40;;;;;;;;;;110160;1279;22172;-76
2023/03/06 03:08:14;;;;;;;16.00;8.20;;;;;;;;;;110530;1260;22114;-76
2023/03/06 03:10:42;;;;;;;16.90;8.60;;;;;;;;;;110180;1279;22183;-79
2023/03/06 03:13:10;;;;;;;17.00;9.40;;;;;;;;;;110307;1279;22154;-76
2023/03/06 03:15:37;;;;;;;14.80;7.50;;;;;;;;;;110151;1275;22119;-75
2023/03/06 03:18:04;;;;;;;12.90;6.50;;;;;;;;;;110452;1259;22123;-76
2023/03/06 03:27:39;;;;;;;11.70;5.40;;;;;;;;;;110150;1264;22160;-75
2023/03/06 03:30:09;;;;;;;11.90;5.60;;;;;;;;;;110027;1268;23051;-75
2023/03/06 03:32:36;;;;;;;10.00;4.80;;;;;;;;;;110056;1282;22173;-76
2023/03/06 03:35:04;;;;;;;12.30;5.90;;;;;;;;;;110040;1282;22103;-75
2023/03/06 03:37:31;;;;;;;11.90;5.40;;;;;;;;;;110014;1265;22149;-75
2023/03/06 03:39:58;;;;;;;11.20;5.00;;;;;;;;;;110026;1282;22159;-75
2023/03/06 03:42:25;;;;;;;11.70;5.20;;;;;;;;;;109921;1282;22158;-76
2023/03/06 03:44:53;;;;;;;10.90;4.90;;;;;;;;;;109953;1282;22176;-75
2023/03/06 03:47:21;;;;;;;11.10;5.30;;;;;;;;;;109996;1259;22208;-75
2023/03/06 03:49:48;;;;;;;10.80;5.30;;;;;;;;;;109985;1282;22191;-76
2023/03/06 03:52:16;;;;;;;11.10;5.10;;;;;;;;;;109895;1282;21991;-75
2023/03/06 03:54:43;;;;;;;12.30;5.50;;;;;;;;;;110036;1279;22136;-74
2023/03/06 03:57:10;;;;;;;12.20;6.00;;;;;;;;;;110215;1256;22373;-78
2023/03/06 03:59:39;;;;;;;12.10;6.10;;;;;;;;;;110128;1279;21889;-77
2023/03/06 04:02:29;;;;;;;13.30;6.80;;;;;;;;;;110210;1279;22150;-75
2023/03/06 04:05:05;;;;;;;12.90;6.00;;;;;;;;;;110155;1279;22122;-75
2023/03/06 04:07:33;;;;;;;12.90;6.70;;;;;;;;;;110112;1256;22861;-75
2023/03/06 04:10:00;;;;;;;14.60;7.30;;;;;;;;;;110189;1279;22551;-75
2023/03/06 04:12:27;;;;;;;14.20;6.80;;;;;;;;;;110217;1279;22927;-75
2023/03/06 04:14:54;;;;;;;13.00;6.10;;;;;;;;;;110127;1279;22123;-75
2023/03/06 04:17:22;;;;;;;15.00;7.10;;;;;;;;;;110133;1279;23076;-77
2023/03/06 04:19:49;;;;;;;15.60;6.70;;;;;;;;;;110472;1260;22155;-74
2023/03/06 04:22:17;;;;;;;14.60;7.60;;;;;;;;;;110187;1279;22206;-75
2023/03/06 04:24:48;;;;;;;15.30;7.90;;;;;;;;;;110158;1279;22184;-76
2023/03/06 04:27:16;;;;;;;16.10;7.30;;;;;;;;;;110168;1279;22197;-76
2023/03/06 04:29:43;;;;;;;14.10;7.00;;;;;;;;;;110416;1262;22324;-74
2023/03/06 04:32:10;;;;;;;14.70;6.90;;;;;;;;;;110196;1279;22900;-75
2023/03/06 04:34:38;;;;;;;15.30;7.50;;;;;;;;;;110198;1279;22136;-75
2023/03/06 04:37:07;;;;;;;13.10;6.20;;;;;;;;;;110196;1279;22141;-77
2023/03/06 04:39:34;;;;;;;14.10;7.20;;;;;;;;;;110306;1259;22160;-75
2023/03/06 04:42:02;;;;;;;12.40;5.90;;;;;;;;;;110138;1279;22151;-75
2023/03/06 04:44:29;;;;;;;13.50;6.70;;;;;;;;;;110120;1279;22919;-75
2023/03/06 04:46:57;;;;;;;15.00;7.60;;;;;;;;;;110194;1279;21933;-74
2023/03/06 04:49:24;;;;;;;14.20;6.90;;;;;;;;;;110277;1261;22792;-75
2023/03/06 04:51:52;;;;;;;14.60;6.80;;;;;;;;;;110185;1280;22260;-75
2023/03/06 04:54:19;;;;;;;13.60;6.80;;;;;;;;;;110198;1280;22136;-76
2023/03/06 04:56:47;;;;;;;13.60;5.90;;;;;;;;;;110214;1280;22190;-75
2023/03/06 04:59:14;;;;;;;13.50;6.30;;;;;;;;;;110214;1262;22119;-75
2023/03/06 05:01:41;;;;;;;14.10;6.20;;;;;;;;;;110201;1279;22207;-75
2023/03/06 05:04:09;;;;;;;13.60;6.50;;;;;;;;;;110199;1279;22163;-75
2023/03/06 05:06:36;;;;;;;14.30;5.80;;;;;;;;;;110170;1279;22293;-75
2023/03/06 05:09:04;;;;;;;14.00;6.30;;;;;;;;;;110260;1260;22130;-75
2023/03/06 05:11:31;;;;;;;16.30;6.30;;;;;;;;;;110122;1279;22442;-75
2023/03/06 05:13:57;;;;;;;17.40;6.70;;;;;;;;;;110096;1279;22769;-75
2023/03/06 05:16:25;;;;;;;16.90;7.80;;;;;;;;;;110081;1279;22299;-77
2023/03/06 05:18:52;;;;;;;15.20;7.60;;;;;;;;;;110037;1256;22169;-75
2023/03/06 05:21:19;;;;;;;12.90;6.80;;;;;;;;;;110077;1279;22090;-75
2023/03/06 05:23:47;;;;;;;12.50;5.70;;;;;;;;;;110129;1279;22085;-75
2023/03/06 05:26:15;;;;;;;11.60;5.30;;;;;;;;;;110226;1279;22188;-77
2023/03/06 05:28:43;;;;;;;12.00;5.40;;;;;;;;;;110120;1280;22119;-75
2023/03/06 05:31:10;;;;;;;13.30;5.70;;;;;;;;;;110343;1260;22146;-75
2023/03/06 05:33:38;;;;;;;13.20;7.40;;;;;;;;;;110121;1280;22116;-76
2023/03/06 05:36:06;;;;;;;42.20;18.50;;;;;;;;;;110173;1280;22108;-76
2023/03/06 05:38:35;;;;;;;18.30;8.90;;;;;;;;;;110186;1280;22073;-77
2023/03/06 05:41:03;;;;;;;12.90;6.10;;;;;;;;;;110299;1259;22146;-75
2023/03/06 05:43:32;;;;;;;12.90;6.50;;;;;;;;;;110088;1280;22115;-73
2023/03/06 05:46:02;;;;;;;12.40;5.90;;;;;;;;;;110099;1280;22105;-73
2023/03/06 05:48:32;;;;;;;12.80;5.50;;;;;;;;;;110136;1280;22949;-73
2023/03/06 05:51:02;;;;;;;12.70;5.60;;;;;;;;;;110248;1262;22752;-73
2023/03/06 05:53:31;;;;;;;12.70;5.10;;;;;;;;;;110095;1280;22113;-73
2023/03/06 05:56:02;;;;;;;12.90;5.60;;;;;;;;;;110055;1280;22000;-73
2023/03/06 05:58:33;;;;;;;12.20;5.60;;;;;;;;;;110150;1280;22106;-72
2023/03/06 06:01:08;;;;;;;12.30;5.40;;;;;;;;;;110321;1259;22909;-73
2023/03/06 06:03:37;;;;;;;14.00;5.90;;;;;;;;;;110080;1280;22871;-73
2023/03/06 06:06:07;;;;;;;12.10;4.90;;;;;;;;;;110084;1278;22831;-72
2023/03/06 06:08:36;;;;;;;12.10;5.20;;;;;;;;;;110079;1280;22106;-73
2023/03/06 06:11:07;;;;;;;11.90;5.20;;;;;;;;;;110196;1264;22110;-73
2023/03/06 06:13:36;;;;;;;10.40;4.60;;;;;;;;;;110097;1280;22102;-72
2023/03/06 06:16:15;;;;;;;10.10;4.80;;;;;;;;;;110088;1278;22119;-74
2023/03/06 06:18:44;;;;;;;10.00;4.10;;;;;;;;;;110055;1280;22118;-73
2023/03/06 06:21:14;;;;;;;9.70;4.30;;;;;;;;;;110245;1262;22837;-74
2023/03/06 06:23:43;;;;;;;9.50;4.10;;;;;;;;;;110072;1280;22142;-75
2023/03/06 06:26:12;;;;;;;9.80;4.30;;;;;;;;;;110142;1280;22113;-75
2023/03/06 06:28:41;;;;;;;9.70;4.30;;;;;;;;;;110047;1280;22822;-74
2023/03/06 06:31:12;;;;;;;11.30;4.30;;;;;;;;;;110269;1259;22126;-74
2023/03/06 06:33:41;;;;;;;12.00;4.90;;;;;;;;;;110031;1280;22122;-74
2023/03/06 06:36:17;;;;;;;11.50;5.50;;;;;;;;;;110103;1270;22078;-74
2023/03/06 06:46:01;;;;;;;11.70;4.90;;;;;;;;;;103761;1295;544878;-74
2023/03/06 06:48:30;;;;;;;12.50;5.80;;;;;;;;;;106245;1287;24223;-75
2023/03/06 06:50:57;;;;;;;11.70;5.60;;;;;;;;;;106078;1287;22549;-78
2023/03/06 06:53:46;;;;;;;15.10;6.80;;;;;;;;;;106153;1287;25294;-78
2023/03/06 06:56:55;;;;;;;30.80;9.90;;;;;;;;;;106180;1269;22621;-80
2023/03/06 06:59:22;;;;;;;20.30;9.00;;;;;;;;;;104528;1285;2416842;-78
2023/03/06 07:01:52;;;;;;;28.70;14.40;;;;;;;;;;106263;1285;22514;-79
2023/03/06 07:04:34;;;;;;;33.70;16.10;;;;;;;;;;106806;1278;22642;-79
2023/03/06 07:07:16;;;;;;;23.70;10.80;;;;;;;;;;106651;1278;25230;-81
2023/03/06 07:09:45;;;;;;;21.90;10.10;;;;;;;;;;106872;1278;22624;-78
2023/03/06 07:12:43;;;;;;;22.30;10.50;;;;;;;;;;106788;1277;22573;-84
2023/03/06 07:15:25;;;;;;;;;;;;;;;;;;;;;
2023/03/06 07:18:35;;;;;;;21.30;10.40;;;;;;;;;;106777;1271;22612;-78
2023/03/06 07:21:32;;;;;;;21.50;10.90;;;;;;;;;;106826;1278;24038;-79
2023/03/06 07:27:12;;;;;;;21.40;11.00;;;;;;;;;;106784;1257;22552;-77
2023/03/06 07:29:54;;;;;;;;;;;;;;;;;;;;;
2023/03/06 07:32:23;;;;;;;16.10;8.30;;;;;;;;;;106761;1278;22473;-82
2023/03/06 07:35:05;;;;;;;21.90;9.70;;;;;;;;;;106720;1278;25512;-77
2023/03/06 07:37:38;;;;;;;20.30;10.10;;;;;;;;;;106787;1259;22527;-81
2023/03/06 07:40:37;;;;;;;21.40;10.60;;;;;;;;;;106581;1272;22527;-81
2023/03/06 07:46:00;;;;;;;19.70;10.20;;;;;;;;;;106770;1279;23869;-82
2023/03/06 07:48:30;;;;;;;26.60;12.20;;;;;;;;;;106664;1270;24235;-78
2023/03/06 07:51:07;;;;;;;25.30;13.20;;;;;;;;;;106622;1276;22527;-81
2023/03/06 07:53:47;;;;;;;33.80;16.60;;;;;;;;;;106724;1262;22746;-78
2023/03/06 07:56:14;;;;;;;27.10;14.40;;;;;;;;;;106766;1278;25302;-78
2023/03/06 07:58:43;;;;;;;28.80;13.70;;;;;;;;;;106988;1256;22489;-82
2023/03/06 08:01:25;;;;;;;28.90;14.40;;;;;;;;;;106813;1278;24222;-80
2023/03/06 08:04:03;;;;;;;27.30;14.70;;;;;;;;;;106744;1278;22537;-84
2023/03/06 08:06:41;;;;;;;23.50;11.70;;;;;;;;;;106815;1278;22643;-78
2023/03/06 08:09:08;;;;;;;24.30;11.90;;;;;;;;;;106749;1270;22524;-84
2023/03/06 08:11:38;;;;;;;24.30;12.80;;;;;;;;;;106903;1278;22539;-82
2023/03/06 08:14:11;;;;;;;22.80;12.10;;;;;;;;;;106892;1278;22529;-81
2023/03/06 08:16:44;;;;;;;23.70;12.50;;;;;;;;;;106766;1278;22520;-82
2023/03/06 08:19:20;;;;;;;20.20;11.00;;;;;;;;;;106588;1261;22516;-84
2023/03/06 08:21:53;;;;;;;21.50;11.90;;;;;;;;;;106691;1278;23865;-83
2023/03/06 08:24:40;;;;;;;24.30;13.20;;;;;;;;;;106794;1278;22508;-83
2023/03/06 08:28:13;;;;;;;21.60;11.90;;;;;;;;;;106905;1278;22534;-80
2023/03/06 08:30:41;;;;;;;22.40;11.90;;;;;;;;;;106657;1262;22637;-83
2023/03/06 08:33:40;;;;;;;21.80;12.40;;;;;;;;;;106389;1284;25478;-80
2023/03/06 08:36:27;;;;;;;25.70;13.40;;;;;;;;;;106325;1285;22532;-81
2023/03/06 08:39:20;;;;;;;24.50;13.70;;;;;;;;;;106372;1283;25435;-80
2023/03/06 08:41:50;;;;;;;23.10;13.60;;;;;;;;;;106318;1283;24246;-80
2023/03/06 08:44:16;;;;;;;23.70;13.70;;;;;;;;;;106341;1283;24238;-79
2023/03/06 08:46:46;;;;;;;23.60;14.20;;;;;;;;;;106425;1283;22530;-80
2023/03/06 08:49:16;;;;;;;21.20;12.50;;;;;;;;;;106249;1267;22526;-78
2023/03/06 08:51:43;;;;;;;18.80;11.40;;;;;;;;;;106325;1283;22501;-83
2023/03/06 08:54:11;;;;;;;22.00;12.50;;;;;;;;;;106279;1283;24211;-80
2023/03/06 08:56:38;;;;;;;21.00;13.00;;;;;;;;;;106221;1283;22530;-75
2023/03/06 08:59:05;;;;;;;19.70;11.90;;;;;;;;;;106361;1260;25328;-78
2023/03/06 09:01:36;;;;;;;24.00;13.30;;;;;;;;;;106420;1277;22642;-83
2023/03/06 09:04:23;;;;;;;19.10;10.90;;;;;;;;;;106658;1278;25353;-77
2023/03/06 09:06:53;;;;;;;17.70;10.40;;;;;;;;;;106908;1257;22616;-82
2023/03/06 09:09:40;;;;;;;17.50;10.70;;;;;;;;;;106771;1256;22528;-83
2023/03/06 09:12:27;;;;;;;19.60;11.60;;;;;;;;;;106826;1278;22604;-78
2023/03/06 09:17:46;;;;;;;22.20;12.20;;;;;;;;;;106878;1278;25434;-75
2023/03/06 09:20:19;;;;;;;17.60;9.90;;;;;;;;;;106910;1259;25262;-76
2023/03/06 09:23:10;;;;;;;17.60;10.80;;;;;;;;;;106898;1278;22527;-81
2023/03/06 09:25:35;;;;;;;35.40;19.70;;;;;;;;;;106900;1278;22535;-77
2023/03/06 09:28:05;;;;;;;22.80;13.60;;;;;;;;;;106855;1278;22523;-79
2023/03/06 09:30:36;;;;;;;23.00;14.40;;;;;;;;;;106899;1262;24350;-76
2023/03/06 09:33:30;;;;;;;25.70;13.90;;;;;;;;;;106910;1278;22543;-77
2023/03/06 09:36:13;;;;;;;21.30;12.90;;;;;;;;;;106864;1278;24227;-83
2023/03/06 09:38:49;;;;;;;21.20;12.30;;;;;;;;;;106878;1279;22527;-81
2023/03/06 09:41:39;;;;;;;19.90;11.30;;;;;;;;;;106748;1263;23301;-80
2023/03/06 09:44:28;;;;;;;24.40;12.60;;;;;;;;;;106673;1269;22530;-76
2023/03/06 09:47:02;;;;;;;23.40;12.50;;;;;;;;;;106509;1279;22523;-77
2023/03/06 09:49:36;;;;;;;26.90;13.70;;;;;;;;;;106636;1280;22534;-81
2023/03/06 09:52:11;;;;;;;26.00;13.40;;;;;;;;;;107010;1261;25277;-77
2023/03/06 09:55:04;;;;;;;;;;;;;;;;;;;;;
2023/03/06 09:57:51;;;;;;;20.00;10.80;;;;;;;;;;106769;1280;22524;-78
2023/03/06 10:00:38;;;;;;;18.40;9.40;;;;;;;;;;106762;1257;22527;-76
2023/03/06 10:03:20;;;;;;;16.60;8.60;;;;;;;;;;106777;1280;24193;-79
2023/03/06 10:05:51;;;;;;;15.40;8.60;;;;;;;;;;106774;1280;22641;-80
2023/03/06 10:08:41;;;;;;;14.00;7.40;;;;;;;;;;106940;1280;22524;-81
2023/03/06 10:11:28;;;;;;;16.40;7.90;;;;;;;;;;106807;1280;24275;-83
2023/03/06 10:14:10;;;;;;;14.90;7.90;;;;;;;;;;106860;1280;22547;-80
2023/03/06 10:16:46;;;;;;;15.70;8.20;;;;;;;;;;106823;1280;24194;-81
2023/03/06 10:19:46;;;;;;;;;;;;;;;;;;;;;
2023/03/06 10:22:29;;;;;;;18.30;9.10;;;;;;;;;;106783;1279;22544;-78
2023/03/06 10:25:21;;;;;;;17.20;8.50;;;;;;;;;;106806;1280;24241;-76
2023/03/06 10:28:10;;;;;;;15.40;7.90;;;;;;;;;;106902;1278;22526;-83
2023/03/06 10:31:04;;;;;;;17.80;9.00;;;;;;;;;;106910;1257;22550;-84
2023/03/06 10:33:46;;;;;;;14.40;8.70;;;;;;;;;;106834;1278;23535;-80
2023/03/06 10:36:39;;;;;;;20.10;10.20;;;;;;;;;;106757;1278;22555;-82
2023/03/06 10:39:16;;;;;;;22.40;12.40;;;;;;;;;;106865;1278;22543;-85
2023/03/06 10:42:03;;;;;;;17.50;8.90;;;;;;;;;;106873;1259;25332;-77
2023/03/06 10:45:05;;;;;;;15.90;9.10;;;;;;;;;;106890;1278;23310;-78
2023/03/06 10:48:03;;;;;;;;;;;;;;;;;;;;;
2023/03/06 10:50:38;;;;;;;18.40;9.50;;;;;;;;;;107238;1275;22519;-76
2023/03/06 10:53:27;;;;;;;20.70;11.00;;;;;;;;;;106984;1256;22542;-84
2023/03/06 10:56:24;;;;;;;15.50;8.60;;;;;;;;;;107101;1275;22534;-80
2023/03/06 10:59:10;;;;;;;15.20;7.80;;;;;;;;;;107132;1276;22521;-82
2023/03/06 11:01:38;;;;;;;16.40;8.40;;;;;;;;;;106789;1276;22631;-78
2023/03/06 11:04:25;;;;;;;17.30;8.10;;;;;;;;;;106684;1276;22524;-78
2023/03/06 11:07:11;;;;;;;16.90;9.70;;;;;;;;;;107103;1275;23278;-77
2023/03/06 11:09:46;;;;;;;17.90;9.60;;;;;;;;;;107007;1275;22538;-82
2023/03/06 11:12:36;;;;;;;16.50;9.00;;;;;;;;;;106940;1257;25537;-75
2023/03/06 11:15:09;;;;;;;18.20;9.20;;;;;;;;;;107096;1276;25285;-79
2023/03/06 11:17:56;;;;;;;16.20;8.80;;;;;;;;;;106905;1269;24289;-75
2023/03/06 11:20:26;;;;;;;17.20;9.10;;;;;;;;;;106528;1281;22527;-74
2023/03/06 11:23:13;;;;;;;17.90;9.90;;;;;;;;;;106725;1262;22702;-76
2023/03/06 11:25:41;;;;;;;14.50;8.20;;;;;;;;;;106821;1281;25406;-78
2023/03/06 11:28:14;;;;;;;14.90;8.20;;;;;;;;;;106690;1281;25590;-79
2023/03/06 11:30:46;;;;;;;17.70;8.80;;;;;;;;;;106723;1268;22662;-76
2023/03/06 11:33:36;;;;;;;17.40;8.30;;;;;;;;;;106428;1264;24682;-77
2023/03/06 11:36:23;;;;;;;16.30;7.80;;;;;;;;;;106426;1281;22728;-75
2023/03/06 11:38:50;;;;;;;19.40;9.50;;;;;;;;;;106732;1280;22642;-77
2023/03/06 11:41:36;;;;;;;15.40;7.80;;;;;;;;;;106489;1281;25338;-78
2023/03/06 11:44:18;;;;;;;17.80;7.80;;;;;;;;;;106443;1266;22608;-78
2023/03/06 11:46:51;;;;;;;15.20;7.30;;;;;;;;;;106511;1281;22549;-76
2023/03/06 11:49:37;;;;;;;14.50;7.20;;;;;;;;;;106715;1280;23358;-80
2023/03/06 11:52:07;;;;;;;16.40;7.50;;;;;;;;;;106687;1281;22534;-75
2023/03/06 11:54:34;;;;;;;16.30;7.90;;;;;;;;;;106708;1262;24189;-75
2023/03/06 11:57:04;;;;;;;18.10;8.20;;;;;;;;;;106713;1275;22517;-81
2023/03/06 11:59:39;;;;;;;17.30;8.20;;;;;;;;;;107061;1275;22506;-79
2023/03/06 12:02:38;;;;;;;16.20;8.20;;;;;;;;;;107059;1275;24275;-76
2023/03/06 12:05:05;;;;;;;16.30;7.70;;;;;;;;;;107020;1256;22524;-81
2023/03/06 12:07:55;;;;;;;16.80;8.60;;;;;;;;;;107063;1275;25493;-77
2023/03/06 12:10:42;;;;;;;19.90;10.30;;;;;;;;;;106661;1281;22534;-78
2023/03/06 12:13:27;;;;;;;17.60;7.80;;;;;;;;;;106672;1258;22531;-79
2023/03/06 12:16:00;;;;;;;23.40;9.70;;;;;;;;;;106460;1281;22527;-80
2023/03/06 12:18:30;;;;;;;16.00;7.90;;;;;;;;;;106691;1281;22519;-75
2023/03/06 12:21:05;;;;;;;12.60;6.70;;;;;;;;;;106466;1281;22539;-81
2023/03/06 12:23:55;;;;;;;16.30;7.70;;;;;;;;;;106472;1281;22523;-81
2023/03/06 12:26:40;;;;;;;19.70;9.80;;;;;;;;;;106705;1281;24355;-81
2023/03/06 12:29:27;;;;;;;17.80;9.40;;;;;;;;;;106476;1281;24217;-79
2023/03/06 12:32:07;;;;;;;17.40;8.80;;;;;;;;;;106811;1276;25501;-76
2023/03/06 12:34:54;;;;;;;18.90;8.50;;;;;;;;;;106688;1262;22630;-75
2023/03/06 12:38:00;;;;;;;19.60;9.90;;;;;;;;;;106729;1281;23131;-74
2023/03/06 12:40:42;;;;;;;18.30;9.00;;;;;;;;;;106698;1281;22990;-79
2023/03/06 12:43:34;;;;;;;17.10;9.40;;;;;;;;;;106594;1281;24695;-78
2023/03/06 12:46:10;;;;;;;18.50;8.30;;;;;;;;;;106697;1262;22795;-78
2023/03/06 12:48:57;;;;;;;16.70;9.70;;;;;;;;;;107034;1272;22531;-74
2023/03/06 12:51:24;;;;;;;16.90;9.30;;;;;;;;;;107078;1269;22520;-79
2023/03/06 12:53:52;;;;;;;17.50;8.80;;;;;;;;;;106982;1269;22512;-74
2023/03/06 12:56:27;;;;;;;21.30;10.10;;;;;;;;;;106890;1275;22598;-79
2023/03/06 12:59:31;;;;;;;22.00;11.10;;;;;;;;;;107062;1268;25437;-77
2023/03/06 13:02:12;;;;;;;16.90;9.00;;;;;;;;;;107087;1268;23997;-75
2023/03/06 13:04:47;;;;;;;16.50;9.60;;;;;;;;;;107138;1256;22546;-75
2023/03/06 13:07:21;;;;;;;17.30;8.80;;;;;;;;;;107024;1269;25275;-76
2023/03/06 13:10:07;;;;;;;17.70;9.50;;;;;;;;;;107300;1269;25213;-73
2023/03/06 13:12:54;;;;;;;17.40;9.50;;;;;;;;;;106961;1269;22521;-78
2023/03/06 13:15:36;;;;;;;20.20;10.30;;;;;;;;;;107084;1256;24214;-74
2023/03/06 13:18:42;;;;;;;20.60;9.90;;;;;;;;;;107081;1272;22523;-75
2023/03/06 13:21:29;;;;;;;17.00;8.80;;;;;;;;;;107060;1272;22559;-77
2023/03/06 13:24:21;;;;;;;17.40;9.70;;;;;;;;;;107058;1270;22993;-73
2023/03/06 13:26:56;;;;;;;19.90;10.10;;;;;;;;;;106857;1259;25220;-75
2023/03/06 13:29:58;;;;;;;19.80;10.00;;;;;;;;;;106915;1269;23394;-79
2023/03/06 13:32:29;;;;;;;25.70;12.30;;;;;;;;;;107120;1260;25227;-75
2023/03/06 13:35:43;;;;;;;24.80;12.50;;;;;;;;;;107001;1256;24290;-73
2023/03/06 13:38:28;;;;;;;21.30;9.20;;;;;;;;;;107063;1269;22525;-75
2023/03/06 13:41:15;;;;;;;18.20;9.40;;;;;;;;;;106954;1269;25460;-74
2023/03/06 13:43:42;;;;;;;25.80;12.40;;;;;;;;;;106973;1269;24781;-77
2023/03/06 13:46:38;;;;;;;;;;;;;;;;;;;;;
2023/03/06 13:49:27;;;;;;;22.30;10.90;;;;;;;;;;107073;1268;22523;-75
2023/03/06 13:51:54;;;;;;;26.20;12.20;;;;;;;;;;107046;1269;23905;-74
2023/03/06 13:54:56;;;;;;;109.10;35.90;;;;;;;;;;107041;1269;22522;-76
2023/03/06 13:57:26;;;;;;;30.60;13.10;;;;;;;;;;106952;1256;22579;-72
2023/03/06 14:00:23;;;;;;;24.90;12.10;;;;;;;;;;106897;1270;22523;-75
2023/03/06 14:02:55;;;;;;;22.30;12.70;;;;;;;;;;106914;1272;23767;-75
2023/03/06 14:05:42;;;;;;;21.50;10.20;;;;;;;;;;107042;1269;22521;-72
2023/03/06 14:08:39;;;;;;;81.50;28.40;;;;;;;;;;107010;1268;23245;-76
2023/03/06 14:11:36;;;;;;;25.20;10.60;;;;;;;;;;106911;1269;25227;-75
2023/03/06 14:14:05;;;;;;;30.00;13.00;;;;;;;;;;106909;1273;24955;-74
2023/03/06 14:16:52;;;;;;;18.60;9.30;;;;;;;;;;106824;1259;22487;-73
2023/03/06 14:19:58;;;;;;;13.60;6.90;;;;;;;;;;106904;1272;22558;-75
2023/03/06 14:22:26;;;;;;;27.70;12.80;;;;;;;;;;106959;1269;23943;-73
2023/03/06 14:25:13;;;;;;;27.40;11.30;;;;;;;;;;106974;1269;22510;-73
2023/03/06 14:27:51;;;;;;;;;;;;;;;;;;;;;
2023/03/06 14:30:34;;;;;;;34.00;16.10;;;;;;;;;;106941;1272;24476;-75
2023/03/06 14:33:14;;;;;;;29.20;13.30;;;;;;;;;;107038;1272;22539;-75
2023/03/06 14:35:50;;;;;;;25.20;10.50;;;;;;;;;;106935;1272;24303;-74
2023/03/06 14:38:23;;;;;;;36.70;17.10;;;;;;;;;;106992;1256;22520;-74
2023/03/06 14:41:12;;;;;;;;;;;;;;;;;;;;;
2023/03/06 14:43:59;;;;;;;91.60;29.00;;;;;;;;;;106923;1272;22506;-75
2023/03/06 14:46:34;;;;;;;69.60;20.70;;;;;;;;;;106843;1276;25379;-74
2023/03/06 14:49:24;;;;;;;72.20;22.50;;;;;;;;;;106956;1271;22551;-75
2023/03/06 14:55:27;;;;;;;;;;;;;;;;;;;;;
2023/03/06 14:58:10;;;;;;;34.60;13.70;;;;;;;;;;106904;1269;24250;-74
2023/03/06 15:01:00;;;;;;;29.30;11.50;;;;;;;;;;106916;1275;22918;-75
2023/03/06 15:03:33;;;;;;;29.90;11.30;;;;;;;;;;107123;1268;22520;-79
2023/03/06 15:06:00;;;;;;;25.60;9.30;;;;;;;;;;106982;1269;22510;-74
2023/03/06 15:08:30;;;;;;;14.40;5.60;;;;;;;;;;106952;1259;24180;-75
2023/03/06 15:11:17;;;;;;;19.50;7.60;;;;;;;;;;107045;1268;23124;-72
2023/03/06 15:13:58;;;;;;;19.40;8.20;;;;;;;;;;107056;1270;22537;-75
2023/03/06 15:16:26;;;;;;;17.10;7.00;;;;;;;;;;106939;1269;22556;-82
2023/03/06 15:18:58;;;;;;;16.70;7.20;;;;;;;;;;107013;1256;22744;-78
2023/03/06 15:21:27;;;;;;;19.50;7.10;;;;;;;;;;107061;1272;25578;-79
2023/03/06 15:23:58;;;;;;;15.80;6.60;;;;;;;;;;106883;1274;22654;-71
2023/03/06 15:26:33;;;;;;;15.60;6.50;;;;;;;;;;106927;1269;25272;-79
2023/03/06 15:29:12;;;;;;;13.10;5.50;;;;;;;;;;106882;1256;25255;-76
2023/03/06 15:31:40;;;;;;;12.20;4.90;;;;;;;;;;110597;1272;22084;-73
2023/03/06 15:34:10;;;;;;;14.00;5.60;;;;;;;;;;110440;1275;23123;-73
2023/03/06 15:36:38;;;;;;;23.10;8.50;;;;;;;;;;110569;1272;22500;-74
2023/03/06 15:39:31;;;;;;;18.70;7.60;;;;;;;;;;110620;1259;22230;-73
2023/03/06 15:42:17;;;;;;;17.20;6.40;;;;;;;;;;110616;1276;22726;-75